Aérodrome :
LOGIN :

S'inscrire | Disclaimer

   EN    FR    IT 

 










Légende :    VFR   VFR Marginal   IFR   IFR Intensif   IFR Très Intensif
Visi : 
Plafond : 
>= 8 km
>= 3000ft
5 à 8 km
1000 à 3000 ft
1500m à 5 km
500 à 1000 ft
800 à 1500m
200 à 500 ft
< 800m
< 200 ft
Symboles :   Orages  Brouillard  Fortes neiges  Fortes précipitations  Vent > 20 kt
SIGMETs :   Divers  Orages  Givrage  Turbulence  Onde Orograph.  Cendres Volcan.







- Altitude de l'aérodrome : 1487 ft
- Code IATA : MUC


EDDM - München Franz Josef Strauss

DERNIER METAR :
  • 231150Z 06005KT 350V110 9999 BKN020 11/06 Q1015 NOSIG

METARs EXPIRÉS :
  • 231120Z 09007KT 040V110 9999 BKN020 11/06 Q1015 NOSIG
  • 231050Z 09005KT 040V150 9999 BKN018 10/06 Q1015 NOSIG
  • 231020Z 11005KT 060V150 9999 BKN016 10/06 Q1015 NOSIG
  • 230950Z 11008KT 9999 SCT013 10/06 Q1015 NOSIG
  • 230920Z 11007KT 9999 SCT011 SCT026 09/07 Q1015 NOSIG

TAF TAF EDDM
Valide du 23 à 12h jusqu'au 24 à 18h UTC


231100Z 2312/2418 06005KT 9999 SCT020
BECMG 2322/2324 2500 BR
BECMG 2402/2404 0500 FG BKN002
BECMG 2407/2409 07010KT 3500 BR BKN007
BECMG 2409/2412 9999 SCT015
Pas de NOTAMs connus pour ce terrain.



MET'MAP, la Météo Aéronautique d'un coup d'oeil ! - Copyright ORBIFLY Décembre 2007 - Disclaimer

ORBIFLY MET'MAP TEAM :

Programmation & Développement : Alexandra Zaïnal
Conception & Développement : Baudouin d'Aumeries
Co-Programmation & Développement : Marc-Olivier Méhu
Soutien technique & logistique : Manuel Goepfert

Contact : metmap@orbifly.com




SOURCES & CREDITS :

   NOAA